sensor_id;sensor_type;location;lat;lon;timestamp;pressure;altitude;pressure_sealevel;temperature;humidity
48796;BME280;34607;48.520;-1.330;2023-07-16T08:03:43;100097.09;;;17.93;99.01
48796;BME280;34607;48.520;-1.330;2023-07-16T08:06:10;100095.31;;;17.95;99.39
48796;BME280;34607;48.520;-1.330;2023-07-16T08:08:38;100096.91;;;18.02;98.96
48796;BME280;34607;48.520;-1.330;2023-07-16T08:11:05;100098.41;;;18.15;98.17
48796;BME280;34607;48.520;-1.330;2023-07-16T08:13:32;100103.09;;;18.00;97.35
48796;BME280;34607;48.520;-1.330;2023-07-16T08:15:59;100102.19;;;17.99;96.87
48796;BME280;34607;48.520;-1.330;2023-07-16T08:18:26;100107.09;;;18.19;97.05
48796;BME280;34607;48.520;-1.330;2023-07-16T08:20:54;100107.63;;;18.35;96.16
48796;BME280;34607;48.520;-1.330;2023-07-16T08:23:21;100111.19;;;18.34;95.99
48796;BME280;34607;48.520;-1.330;2023-07-16T08:25:49;100113.97;;;18.25;96.41
48796;BME280;34607;48.520;-1.330;2023-07-16T08:28:17;100116.72;;;18.19;96.82
48796;BME280;34607;48.520;-1.330;2023-07-16T08:30:46;100117.34;;;18.30;97.05
48796;BME280;34607;48.520;-1.330;2023-07-16T08:33:13;100120.75;;;18.35;96.16
48796;BME280;34607;48.520;-1.330;2023-07-16T08:35:41;100119.47;;;18.56;96.11
48796;BME280;34607;48.520;-1.330;2023-07-16T08:38:10;100122.66;;;18.70;95.37
48796;BME280;34607;48.520;-1.330;2023-07-16T08:40:37;100123.19;;;18.89;95.49
48796;BME280;34607;48.520;-1.330;2023-07-16T08:43:05;100117.59;;;19.05;95.27
48796;BME280;34607;48.520;-1.330;2023-07-16T08:45:35;100108.97;;;19.37;95.35
48796;BME280;34607;48.520;-1.330;2023-07-16T08:48:06;100113.13;;;19.46;94.14
48796;BME280;34607;48.520;-1.330;2023-07-16T08:50:34;100107.34;;;19.69;92.89
48796;BME280;34607;48.520;-1.330;2023-07-16T08:53:03;100108.50;;;19.93;91.09
48796;BME280;34607;48.520;-1.330;2023-07-16T08:55:32;100107.94;;;20.13;89.63
48796;BME280;34607;48.520;-1.330;2023-07-16T08:58:01;100109.19;;;20.33;87.66
48796;BME280;34607;48.520;-1.330;2023-07-16T09:00:29;100109.22;;;20.31;86.89
48796;BME280;34607;48.520;-1.330;2023-07-16T09:02:56;100110.88;;;20.34;86.20
48796;BME280;34607;48.520;-1.330;2023-07-16T09:05:24;100107.06;;;20.46;85.76
48796;BME280;34607;48.520;-1.330;2023-07-16T09:07:51;100114.66;;;20.56;84.55
48796;BME280;34607;48.520;-1.330;2023-07-16T09:10:18;100115.31;;;20.65;83.79
48796;BME280;34607;48.520;-1.330;2023-07-16T09:12:47;100117.91;;;20.66;83.38
48796;BME280;34607;48.520;-1.330;2023-07-16T09:15:17;100113.97;;;20.50;83.51
48796;BME280;34607;48.520;-1.330;2023-07-16T09:17:47;100096.28;;;20.24;84.41
48796;BME280;34607;48.520;-1.330;2023-07-16T09:20:15;100106.97;;;20.17;84.16
48796;BME280;34607;48.520;-1.330;2023-07-16T09:22:42;100117.94;;;20.00;84.23
48796;BME280;34607;48.520;-1.330;2023-07-16T09:25:09;100113.91;;;19.87;84.98
48796;BME280;34607;48.520;-1.330;2023-07-16T09:27:37;100107.38;;;19.68;84.63
48796;BME280;34607;48.520;-1.330;2023-07-16T09:30:06;100104.91;;;19.60;85.23
48796;BME280;34607;48.520;-1.330;2023-07-16T09:32:34;100116.38;;;19.57;85.16
48796;BME280;34607;48.520;-1.330;2023-07-16T09:35:06;100108.97;;;19.75;85.58
48796;BME280;34607;48.520;-1.330;2023-07-16T09:37:33;100107.41;;;20.33;85.23
48796;BME280;34607;48.520;-1.330;2023-07-16T09:40:02;100115.81;;;21.07;83.57
48796;BME280;34607;48.520;-1.330;2023-07-16T09:42:32;100112.38;;;21.33;80.45
48796;BME280;34607;48.520;-1.330;2023-07-16T09:45:01;100106.03;;;21.11;80.81
48796;BME280;34607;48.520;-1.330;2023-07-16T09:47:30;100111.28;;;21.11;80.16
48796;BME280;34607;48.520;-1.330;2023-07-16T09:49:57;100112.50;;;20.71;80.14
48796;BME280;34607;48.520;-1.330;2023-07-16T09:52:26;100113.69;;;20.59;80.91
48796;BME280;34607;48.520;-1.330;2023-07-16T09:54:55;100113.13;;;20.81;80.80
48796;BME280;34607;48.520;-1.330;2023-07-16T09:57:25;100112.19;;;21.38;79.78
48796;BME280;34607;48.520;-1.330;2023-07-16T09:59:53;100121.56;;;21.75;77.99
48796;BME280;34607;48.520;-1.330;2023-07-16T10:02:22;100111.19;;;21.70;77.30
48796;BME280;34607;48.520;-1.330;2023-07-16T10:04:51;100118.31;;;21.94;76.21
48796;BME280;34607;48.520;-1.330;2023-07-16T10:07:21;100122.19;;;22.08;76.81
48796;BME280;34607;48.520;-1.330;2023-07-16T10:09:53;100117.66;;;22.12;76.92
48796;BME280;34607;48.520;-1.330;2023-07-16T10:12:22;100118.03;;;22.01;77.62
48796;BME280;34607;48.520;-1.330;2023-07-16T10:14:51;100120.97;;;21.67;76.29
48796;BME280;34607;48.520;-1.330;2023-07-16T10:17:19;100122.69;;;21.40;77.57
48796;BME280;34607;48.520;-1.330;2023-07-16T10:19:55;100132.72;;;21.28;78.54
48796;BME280;34607;48.520;-1.330;2023-07-16T10:22:37;100136.59;;;20.55;79.72
48796;BME280;34607;48.520;-1.330;2023-07-16T10:25:10;100129.03;;;20.12;81.02
48796;BME280;34607;48.520;-1.330;2023-07-16T10:27:49;100142.81;;;19.87;83.81
48796;BME280;34607;48.520;-1.330;2023-07-16T10:30:17;100147.09;;;19.91;84.96
48796;BME280;34607;48.520;-1.330;2023-07-16T10:32:44;100155.88;;;19.53;86.73
48796;BME280;34607;48.520;-1.330;2023-07-16T10:35:14;100148.88;;;19.52;87.29
48796;BME280;34607;48.520;-1.330;2023-07-16T10:37:41;100135.06;;;19.45;88.46
48796;BME280;34607;48.520;-1.330;2023-07-16T10:40:10;100100.31;;;19.34;88.64
48796;BME280;34607;48.520;-1.330;2023-07-16T10:42:40;100138.75;;;19.72;89.35
48796;BME280;34607;48.520;-1.330;2023-07-16T10:45:08;100143.81;;;19.83;89.17
48796;BME280;34607;48.520;-1.330;2023-07-16T10:47:36;100146.44;;;19.83;89.00
48796;BME280;34607;48.520;-1.330;2023-07-16T10:50:05;100154.06;;;19.92;89.31
48796;BME280;34607;48.520;-1.330;2023-07-16T10:52:35;100152.16;;;19.99;89.84
48796;BME280;34607;48.520;-1.330;2023-07-16T10:55:03;100142.19;;;20.12;90.73
48796;BME280;34607;48.520;-1.330;2023-07-16T10:57:30;100141.47;;;20.38;90.16
48796;BME280;34607;48.520;-1.330;2023-07-16T10:59:58;100131.22;;;20.60;88.92
48796;BME280;34607;48.520;-1.330;2023-07-16T11:02:26;100134.09;;;21.12;88.19
48796;BME280;34607;48.520;-1.330;2023-07-16T11:04:53;100139.47;;;21.37;85.90
48796;BME280;34607;48.520;-1.330;2023-07-16T11:07:21;100136.25;;;21.27;84.59
48796;BME280;34607;48.520;-1.330;2023-07-16T11:09:50;100134.28;;;21.34;83.66
48796;BME280;34607;48.520;-1.330;2023-07-16T11:12:20;100137.41;;;21.19;82.00
48796;BME280;34607;48.520;-1.330;2023-07-16T11:14:49;100121.19;;;21.04;81.62
48796;BME280;34607;48.520;-1.330;2023-07-16T11:17:16;100135.03;;;21.09;82.70
48796;BME280;34607;48.520;-1.330;2023-07-16T11:19:45;100130.66;;;21.10;83.47
48796;BME280;34607;48.520;-1.330;2023-07-16T11:22:14;100114.47;;;20.94;83.58
48796;BME280;34607;48.520;-1.330;2023-07-16T11:24:42;100138.16;;;20.94;84.71
48796;BME280;34607;48.520;-1.330;2023-07-16T11:27:18;100132.00;;;20.93;84.30
48796;BME280;34607;48.520;-1.330;2023-07-16T11:29:46;100139.81;;;20.97;85.28
48796;BME280;34607;48.520;-1.330;2023-07-16T11:32:14;100140.88;;;20.91;83.69
48796;BME280;34607;48.520;-1.330;2023-07-16T11:34:53;100136.53;;;20.58;84.93
48796;BME280;34607;48.520;-1.330;2023-07-16T11:37:21;100135.38;;;20.37;85.29
48796;BME280;34607;48.520;-1.330;2023-07-16T11:39:48;100126.84;;;20.28;85.95
48796;BME280;34607;48.520;-1.330;2023-07-16T11:42:23;100117.72;;;20.08;86.23
48796;BME280;34607;48.520;-1.330;2023-07-16T11:44:50;100122.16;;;20.06;86.89
48796;BME280;34607;48.520;-1.330;2023-07-16T11:47:17;100124.69;;;20.11;87.89
48796;BME280;34607;48.520;-1.330;2023-07-16T11:49:44;100118.59;;;20.09;87.78
48796;BME280;34607;48.520;-1.330;2023-07-16T11:52:11;100122.69;;;20.20;88.90
48796;BME280;34607;48.520;-1.330;2023-07-16T11:54:39;100114.31;;;20.37;88.21
48796;BME280;34607;48.520;-1.330;2023-07-16T11:57:06;100120.00;;;20.53;87.59
48796;BME280;34607;48.520;-1.330;2023-07-16T11:59:34;100101.25;;;20.95;88.32
48796;BME280;34607;48.520;-1.330;2023-07-16T12:02:02;100119.97;;;21.43;87.08
48796;BME280;34607;48.520;-1.330;2023-07-16T12:04:29;100115.56;;;21.15;86.46
48796;BME280;34607;48.520;-1.330;2023-07-16T12:06:56;100133.84;;;21.20;86.48
48796;BME280;34607;48.520;-1.330;2023-07-16T12:09:23;100137.53;;;21.14;85.17
48796;BME280;34607;48.520;-1.330;2023-07-16T12:11:50;100128.19;;;21.04;84.91
48796;BME280;34607;48.520;-1.330;2023-07-16T12:14:17;100126.44;;;20.74;83.44
48796;BME280;34607;48.520;-1.330;2023-07-16T12:16:46;100121.50;;;20.93;83.30
48796;BME280;34607;48.520;-1.330;2023-07-16T12:19:13;100126.81;;;21.20;83.90
48796;BME280;34607;48.520;-1.330;2023-07-16T12:21:40;100122.81;;;21.35;83.17
48796;BME280;34607;48.520;-1.330;2023-07-16T12:24:07;100126.78;;;21.22;80.65
48796;BME280;34607;48.520;-1.330;2023-07-16T12:26:34;100111.16;;;20.87;81.33
48796;BME280;34607;48.520;-1.330;2023-07-16T12:29:02;100129.97;;;21.03;81.66
48796;BME280;34607;48.520;-1.330;2023-07-16T12:31:30;100118.34;;;21.10;80.93
48796;BME280;34607;48.520;-1.330;2023-07-16T12:33:59;100114.84;;;21.38;79.13
48796;BME280;34607;48.520;-1.330;2023-07-16T12:36:27;100129.09;;;22.13;78.21
48796;BME280;34607;48.520;-1.330;2023-07-16T12:38:54;100116.59;;;22.67;76.90
48796;BME280;34607;48.520;-1.330;2023-07-16T12:41:21;100115.13;;;23.07;76.06
48796;BME280;34607;48.520;-1.330;2023-07-16T12:43:48;100113.84;;;23.17;73.67
48796;BME280;34607;48.520;-1.330;2023-07-16T12:46:15;100106.94;;;23.35;73.63
48796;BME280;34607;48.520;-1.330;2023-07-16T12:48:42;100114.41;;;23.46;71.72
48796;BME280;34607;48.520;-1.330;2023-07-16T12:51:11;100118.78;;;23.69;70.61
48796;BME280;34607;48.520;-1.330;2023-07-16T12:53:38;100111.97;;;23.63;68.98
48796;BME280;34607;48.520;-1.330;2023-07-16T12:56:05;100101.88;;;23.51;69.76
48796;BME280;34607;48.520;-1.330;2023-07-16T12:58:32;100103.59;;;23.52;69.58
48796;BME280;34607;48.520;-1.330;2023-07-16T13:00:59;100106.59;;;23.22;69.11
48796;BME280;34607;48.520;-1.330;2023-07-16T13:03:26;100086.13;;;23.27;69.70
48796;BME280;34607;48.520;-1.330;2023-07-16T13:05:54;100115.38;;;23.23;69.08
48796;BME280;34607;48.520;-1.330;2023-07-16T13:08:22;100115.38;;;22.99;68.35
48796;BME280;34607;48.520;-1.330;2023-07-16T13:10:49;100104.78;;;22.77;69.49
48796;BME280;34607;48.520;-1.330;2023-07-16T13:13:16;100116.97;;;22.81;68.80
48796;BME280;34607;48.520;-1.330;2023-07-16T13:15:43;100110.63;;;23.09;68.55
48796;BME280;34607;48.520;-1.330;2023-07-16T13:18:10;100107.56;;;22.96;68.35
48796;BME280;34607;48.520;-1.330;2023-07-16T13:20:38;100107.09;;;22.86;68.66
48796;BME280;34607;48.520;-1.330;2023-07-16T13:23:05;100118.66;;;23.06;67.61
48796;BME280;34607;48.520;-1.330;2023-07-16T13:25:35;100116.16;;;23.47;68.12
48796;BME280;34607;48.520;-1.330;2023-07-16T13:28:04;100108.25;;;23.67;68.31
48796;BME280;34607;48.520;-1.330;2023-07-16T13:30:31;100113.34;;;23.51;67.86
48796;BME280;34607;48.520;-1.330;2023-07-16T13:32:58;100103.44;;;23.12;68.38
48796;BME280;34607;48.520;-1.330;2023-07-16T13:35:27;100109.03;;;23.27;69.34
48796;BME280;34607;48.520;-1.330;2023-07-16T13:37:54;100109.56;;;23.57;69.55
48796;BME280;34607;48.520;-1.330;2023-07-16T13:40:21;100106.41;;;23.69;68.47
48796;BME280;34607;48.520;-1.330;2023-07-16T13:42:49;100103.84;;;23.46;68.62
48796;BME280;34607;48.520;-1.330;2023-07-16T13:45:16;100099.31;;;23.05;70.39
48796;BME280;34607;48.520;-1.330;2023-07-16T13:47:43;100106.72;;;22.72;70.89
48796;BME280;34607;48.520;-1.330;2023-07-16T13:50:10;100110.38;;;22.69;70.37
48796;BME280;34607;48.520;-1.330;2023-07-16T13:52:37;100087.34;;;22.49;70.08
48796;BME280;34607;48.520;-1.330;2023-07-16T13:55:05;100113.69;;;22.51;71.00
48796;BME280;34607;48.520;-1.330;2023-07-16T13:57:32;100105.47;;;22.35;71.44
48796;BME280;34607;48.520;-1.330;2023-07-16T14:00:01;100112.63;;;22.78;70.85
48796;BME280;34607;48.520;-1.330;2023-07-16T14:02:30;100101.97;;;23.27;69.74
48796;BME280;34607;48.520;-1.330;2023-07-16T14:04:57;100109.75;;;23.30;68.04
48796;BME280;34607;48.520;-1.330;2023-07-16T14:07:24;100106.44;;;23.03;68.64
48796;BME280;34607;48.520;-1.330;2023-07-16T14:09:51;100112.53;;;22.81;69.47
48796;BME280;34607;48.520;-1.330;2023-07-16T14:12:18;100119.25;;;22.67;68.15
48796;BME280;34607;48.520;-1.330;2023-07-16T14:14:45;100125.34;;;22.45;67.81
48796;BME280;34607;48.520;-1.330;2023-07-16T14:17:14;100110.34;;;21.95;68.99
48796;BME280;34607;48.520;-1.330;2023-07-16T14:19:41;100140.50;;;21.86;68.56
48796;BME280;34607;48.520;-1.330;2023-07-16T14:22:08;100145.81;;;21.60;68.12
48796;BME280;34607;48.520;-1.330;2023-07-16T14:24:37;100149.28;;;21.32;71.89
48796;BME280;34607;48.520;-1.330;2023-07-16T14:27:06;100159.47;;;21.14;74.01
48796;BME280;34607;48.520;-1.330;2023-07-16T14:29:33;100166.75;;;20.75;77.53
48796;BME280;34607;48.520;-1.330;2023-07-16T14:32:00;100137.00;;;20.42;78.85
48796;BME280;34607;48.520;-1.330;2023-07-16T14:34:29;100174.31;;;20.54;79.59
48796;BME280;34607;48.520;-1.330;2023-07-16T14:36:56;100179.84;;;20.45;80.55
48796;BME280;34607;48.520;-1.330;2023-07-16T14:39:23;100188.97;;;20.32;81.33
48796;BME280;34607;48.520;-1.330;2023-07-16T14:41:50;100190.06;;;20.23;81.91
48796;BME280;34607;48.520;-1.330;2023-07-16T14:44:17;100179.00;;;20.12;82.29
48796;BME280;34607;48.520;-1.330;2023-07-16T14:46:44;100181.56;;;20.13;81.79
48796;BME280;34607;48.520;-1.330;2023-07-16T14:49:11;100169.97;;;20.22;80.71
48796;BME280;34607;48.520;-1.330;2023-07-16T14:51:40;100167.00;;;20.67;81.38
48796;BME280;34607;48.520;-1.330;2023-07-16T14:54:07;100150.69;;;21.44;78.09
48796;BME280;34607;48.520;-1.330;2023-07-16T14:56:34;100136.34;;;22.06;77.67
48796;BME280;34607;48.520;-1.330;2023-07-16T14:59:02;100149.97;;;22.44;76.33
48796;BME280;34607;48.520;-1.330;2023-07-16T15:01:30;100146.63;;;22.64;75.86
48796;BME280;34607;48.520;-1.330;2023-07-16T15:03:57;100151.72;;;22.69;74.10
48796;BME280;34607;48.520;-1.330;2023-07-16T15:06:24;100150.97;;;22.89;73.65
48796;BME280;34607;48.520;-1.330;2023-07-16T15:08:53;100139.78;;;22.82;71.97
48796;BME280;34607;48.520;-1.330;2023-07-16T15:11:20;100133.53;;;22.85;72.36
48796;BME280;34607;48.520;-1.330;2023-07-16T15:13:47;100134.63;;;22.79;70.81
48796;BME280;34607;48.520;-1.330;2023-07-16T15:16:14;100126.94;;;22.49;70.41
48796;BME280;34607;48.520;-1.330;2023-07-16T15:18:41;100140.81;;;22.54;70.41
48796;BME280;34607;48.520;-1.330;2023-07-16T15:21:08;100146.25;;;22.50;70.65
48796;BME280;34607;48.520;-1.330;2023-07-16T15:23:35;100143.19;;;22.62;70.13
48796;BME280;34607;48.520;-1.330;2023-07-16T15:26:05;100140.81;;;22.29;69.75
48796;BME280;34607;48.520;-1.330;2023-07-16T15:28:36;100139.94;;;22.30;70.74
48796;BME280;34607;48.520;-1.330;2023-07-16T15:31:03;100140.56;;;22.62;69.98
48796;BME280;34607;48.520;-1.330;2023-07-16T15:33:31;100136.75;;;22.46;69.26
48796;BME280;34607;48.520;-1.330;2023-07-16T15:35:59;100139.44;;;22.17;70.90
48796;BME280;34607;48.520;-1.330;2023-07-16T15:38:26;100135.91;;;22.18;72.42
48796;BME280;34607;48.520;-1.330;2023-07-16T15:40:53;100138.75;;;22.12;71.86
48796;BME280;34607;48.520;-1.330;2023-07-16T15:43:22;100136.53;;;22.00;70.60
48796;BME280;34607;48.520;-1.330;2023-07-16T15:45:49;100121.84;;;21.66;69.06
48796;BME280;34607;48.520;-1.330;2023-07-16T15:48:16;100135.69;;;21.99;68.49
48796;BME280;34607;48.520;-1.330;2023-07-16T15:50:43;100138.78;;;22.37;67.71
48796;BME280;34607;48.520;-1.330;2023-07-16T15:53:10;100148.19;;;22.19;66.86
48796;BME280;34607;48.520;-1.330;2023-07-16T15:55:38;100148.53;;;22.08;66.09
48796;BME280;34607;48.520;-1.330;2023-07-16T15:58:06;100136.66;;;22.22;65.82
48796;BME280;34607;48.520;-1.330;2023-07-16T16:00:35;100143.03;;;22.16;65.34
48796;BME280;34607;48.520;-1.330;2023-07-16T16:03:02;100138.88;;;22.09;65.04
48796;BME280;34607;48.520;-1.330;2023-07-16T16:05:30;100136.16;;;21.85;65.26
48796;BME280;34607;48.520;-1.330;2023-07-16T16:08:11;100153.91;;;21.80;64.96
48796;BME280;34607;48.520;-1.330;2023-07-16T16:10:39;100141.28;;;21.63;65.10
48796;BME280;34607;48.520;-1.330;2023-07-16T16:13:06;100151.13;;;21.58;63.92
48796;BME280;34607;48.520;-1.330;2023-07-16T16:15:35;100140.19;;;21.42;64.50
48796;BME280;34607;48.520;-1.330;2023-07-16T16:18:02;100145.41;;;21.44;65.22
48796;BME280;34607;48.520;-1.330;2023-07-16T16:20:29;100146.41;;;21.40;65.95
48796;BME280;34607;48.520;-1.330;2023-07-16T16:22:57;100147.56;;;21.31;65.20
48796;BME280;34607;48.520;-1.330;2023-07-16T16:25:24;100156.22;;;21.35;64.95
48796;BME280;34607;48.520;-1.330;2023-07-16T16:27:51;100155.75;;;21.22;64.47
48796;BME280;34607;48.520;-1.330;2023-07-16T16:30:18;100159.69;;;21.35;64.04
48796;BME280;34607;48.520;-1.330;2023-07-16T16:32:46;100159.38;;;21.47;63.79
48796;BME280;34607;48.520;-1.330;2023-07-16T16:35:18;100149.72;;;21.46;63.44
48796;BME280;34607;48.520;-1.330;2023-07-16T16:37:45;100159.22;;;21.52;64.03
48796;BME280;34607;48.520;-1.330;2023-07-16T16:40:12;100149.72;;;21.46;64.16
48796;BME280;34607;48.520;-1.330;2023-07-16T16:42:41;100149.06;;;21.38;64.37
48796;BME280;34607;48.520;-1.330;2023-07-16T16:45:08;100159.78;;;21.33;64.45
48796;BME280;34607;48.520;-1.330;2023-07-16T16:47:35;100163.50;;;21.26;64.23
48796;BME280;34607;48.520;-1.330;2023-07-16T16:50:04;100154.41;;;21.08;64.14
48796;BME280;34607;48.520;-1.330;2023-07-16T16:52:32;100149.41;;;20.99;64.52
48796;BME280;34607;48.520;-1.330;2023-07-16T16:54:59;100151.03;;;21.03;64.50
48796;BME280;34607;48.520;-1.330;2023-07-16T16:57:26;100157.13;;;21.05;64.55
48796;BME280;34607;48.520;-1.330;2023-07-16T16:59:54;100159.94;;;20.99;63.96
48796;BME280;34607;48.520;-1.330;2023-07-16T17:02:21;100163.44;;;21.00;64.13
48796;BME280;34607;48.520;-1.330;2023-07-16T17:04:48;100168.06;;;20.91;64.98
48796;BME280;34607;48.520;-1.330;2023-07-16T17:07:16;100162.06;;;20.86;65.23
48796;BME280;34607;48.520;-1.330;2023-07-16T17:09:44;100173.03;;;20.71;65.67
48796;BME280;34607;48.520;-1.330;2023-07-16T17:12:11;100171.41;;;20.67;65.62
48796;BME280;34607;48.520;-1.330;2023-07-16T17:14:38;100177.38;;;20.73;65.74
48796;BME280;34607;48.520;-1.330;2023-07-16T17:17:08;100175.00;;;20.63;65.49
48796;BME280;34607;48.520;-1.330;2023-07-16T17:19:35;100174.16;;;20.61;65.93
48796;BME280;34607;48.520;-1.330;2023-07-16T17:22:02;100189.69;;;20.71;66.99
48796;BME280;34607;48.520;-1.330;2023-07-16T17:24:31;100183.59;;;20.69;66.45
48796;BME280;34607;48.520;-1.330;2023-07-16T17:26:58;100183.84;;;20.60;66.75
48796;BME280;34607;48.520;-1.330;2023-07-16T17:29:25;100172.25;;;20.67;65.97
48796;BME280;34607;48.520;-1.330;2023-07-16T17:31:52;100178.19;;;20.75;66.58
48796;BME280;34607;48.520;-1.330;2023-07-16T17:34:19;100191.28;;;20.77;66.17
48796;BME280;34607;48.520;-1.330;2023-07-16T17:36:46;100175.78;;;20.66;66.31
48796;BME280;34607;48.520;-1.330;2023-07-16T17:39:13;100196.44;;;20.80;67.08
48796;BME280;34607;48.520;-1.330;2023-07-16T17:41:41;100190.59;;;20.70;66.40
48796;BME280;34607;48.520;-1.330;2023-07-16T17:44:09;100200.25;;;20.70;66.13
48796;BME280;34607;48.520;-1.330;2023-07-16T17:46:36;100183.06;;;20.56;66.34
48796;BME280;34607;48.520;-1.330;2023-07-16T17:49:03;100203.75;;;20.70;66.55
48796;BME280;34607;48.520;-1.330;2023-07-16T17:51:31;100207.19;;;20.72;67.09
48796;BME280;34607;48.520;-1.330;2023-07-16T17:53:58;100202.78;;;20.73;67.63
48796;BME280;34607;48.520;-1.330;2023-07-16T17:56:25;100208.97;;;20.72;67.79
48796;BME280;34607;48.520;-1.330;2023-07-16T17:58:53;100212.34;;;20.77;67.79
48796;BME280;34607;48.520;-1.330;2023-07-16T18:01:20;100212.72;;;20.63;67.46
48796;BME280;34607;48.520;-1.330;2023-07-16T18:03:47;100218.31;;;20.49;67.60
48796;BME280;34607;48.520;-1.330;2023-07-16T18:06:14;100215.25;;;20.32;67.99
48796;BME280;34607;48.520;-1.330;2023-07-16T18:08:41;100213.75;;;20.23;68.35
48796;BME280;34607;48.520;-1.330;2023-07-16T18:11:09;100219.97;;;20.20;68.90
48796;BME280;34607;48.520;-1.330;2023-07-16T18:13:36;100228.66;;;20.23;71.42
48796;BME280;34607;48.520;-1.330;2023-07-16T18:16:04;100223.44;;;20.21;75.58
48796;BME280;34607;48.520;-1.330;2023-07-16T18:18:31;100229.69;;;20.17;76.59
48796;BME280;34607;48.520;-1.330;2023-07-16T18:20:59;100223.88;;;20.04;77.92
48796;BME280;34607;48.520;-1.330;2023-07-16T18:23:26;100215.56;;;19.85;79.42
48796;BME280;34607;48.520;-1.330;2023-07-16T18:25:53;100227.00;;;19.82;80.16
48796;BME280;34607;48.520;-1.330;2023-07-16T18:28:20;100240.19;;;19.81;80.25
48796;BME280;34607;48.520;-1.330;2023-07-16T18:30:47;100242.91;;;19.78;80.01
48796;BME280;34607;48.520;-1.330;2023-07-16T18:33:15;100255.16;;;19.77;80.53
48796;BME280;34607;48.520;-1.330;2023-07-16T18:35:45;100225.41;;;19.74;80.75
48796;BME280;34607;48.520;-1.330;2023-07-16T18:38:15;100252.69;;;19.70;80.49
48796;BME280;34607;48.520;-1.330;2023-07-16T18:40:42;100239.13;;;19.49;80.68
48796;BME280;34607;48.520;-1.330;2023-07-16T18:43:09;100254.19;;;19.41;81.34
48796;BME280;34607;48.520;-1.330;2023-07-16T18:45:36;100247.34;;;19.34;81.27
48796;BME280;34607;48.520;-1.330;2023-07-16T18:48:03;100259.41;;;19.42;81.62
48796;BME280;34607;48.520;-1.330;2023-07-16T18:50:32;100259.91;;;19.19;82.39
48796;BME280;34607;48.520;-1.330;2023-07-16T18:52:59;100265.34;;;19.08;82.89
48796;BME280;34607;48.520;-1.330;2023-07-16T18:55:27;100268.09;;;19.04;83.14
48796;BME280;34607;48.520;-1.330;2023-07-16T18:57:54;100262.19;;;18.93;83.62
48796;BME280;34607;48.520;-1.330;2023-07-16T19:00:21;100256.16;;;18.87;84.09
48796;BME280;34607;48.520;-1.330;2023-07-16T19:02:48;100265.78;;;18.88;84.64
48796;BME280;34607;48.520;-1.330;2023-07-16T19:05:17;100265.31;;;18.65;85.69
48796;BME280;34607;48.520;-1.330;2023-07-16T19:07:45;100253.25;;;18.55;85.83
48796;BME280;34607;48.520;-1.330;2023-07-16T19:10:14;100268.97;;;18.55;86.44
48796;BME280;34607;48.520;-1.330;2023-07-16T19:12:41;100259.34;;;18.55;86.55
48796;BME280;34607;48.520;-1.330;2023-07-16T19:15:09;100260.19;;;18.57;86.59
48796;BME280;34607;48.520;-1.330;2023-07-16T19:17:36;100276.13;;;18.46;87.03
48796;BME280;34607;48.520;-1.330;2023-07-16T19:20:03;100282.34;;;18.41;87.06
48796;BME280;34607;48.520;-1.330;2023-07-16T19:22:31;100271.94;;;18.34;87.20
48796;BME280;34607;48.520;-1.330;2023-07-16T19:24:59;100278.81;;;18.42;87.18
48796;BME280;34607;48.520;-1.330;2023-07-16T19:27:26;100270.16;;;18.37;87.52
48796;BME280;34607;48.520;-1.330;2023-07-16T19:29:54;100278.00;;;18.37;88.15
48796;BME280;34607;48.520;-1.330;2023-07-16T19:32:21;100290.19;;;18.41;88.53
48796;BME280;34607;48.520;-1.330;2023-07-16T19:34:48;100292.06;;;18.34;88.58
48796;BME280;34607;48.520;-1.330;2023-07-16T19:37:17;100297.25;;;18.37;89.30
48796;BME280;34607;48.520;-1.330;2023-07-16T19:39:44;100297.31;;;18.34;89.46
48796;BME280;34607;48.520;-1.330;2023-07-16T19:42:12;100300.81;;;18.31;89.44
48796;BME280;34607;48.520;-1.330;2023-07-16T19:44:40;100297.47;;;18.23;89.67
48796;BME280;34607;48.520;-1.330;2023-07-16T19:47:07;100301.09;;;18.14;89.80
48796;BME280;34607;48.520;-1.330;2023-07-16T19:49:34;100285.53;;;18.04;89.98
48796;BME280;34607;48.520;-1.330;2023-07-16T19:52:01;100284.78;;;17.97;90.15
48796;BME280;34607;48.520;-1.330;2023-07-16T19:54:28;100279.63;;;17.92;90.32
48796;BME280;34607;48.520;-1.330;2023-07-16T19:56:55;100285.78;;;17.88;90.38
48796;BME280;34607;48.520;-1.330;2023-07-16T19:59:24;100282.28;;;17.88;90.59
48796;BME280;34607;48.520;-1.330;2023-07-16T20:01:51;100288.41;;;17.84;90.31
48796;BME280;34607;48.520;-1.330;2023-07-16T20:04:18;100305.84;;;17.89;90.51
48796;BME280;34607;48.520;-1.330;2023-07-16T20:06:46;100307.56;;;17.92;90.24
48796;BME280;34607;48.520;-1.330;2023-07-16T20:09:13;100296.22;;;17.90;90.36
48796;BME280;34607;48.520;-1.330;2023-07-16T20:11:40;100295.34;;;17.91;90.84
48796;BME280;34607;48.520;-1.330;2023-07-16T20:14:08;100308.38;;;17.94;90.80
48796;BME280;34607;48.520;-1.330;2023-07-16T20:16:36;100307.66;;;17.84;90.95
48796;BME280;34607;48.520;-1.330;2023-07-16T20:19:05;100311.19;;;17.80;91.29
48796;BME280;34607;48.520;-1.330;2023-07-16T20:21:32;100317.50;;;17.65;92.01
48796;BME280;34607;48.520;-1.330;2023-07-16T20:23:59;100316.63;;;17.65;92.16
48796;BME280;34607;48.520;-1.330;2023-07-16T20:26:28;100320.13;;;17.65;92.01
48796;BME280;34607;48.520;-1.330;2023-07-16T20:28:55;100321.88;;;17.63;92.18
48796;BME280;34607;48.520;-1.330;2023-07-16T20:31:24;100327.19;;;17.60;92.16
48796;BME280;34607;48.520;-1.330;2023-07-16T20:33:52;100323.75;;;17.56;92.26
48796;BME280;34607;48.520;-1.330;2023-07-16T20:36:19;100332.44;;;17.57;92.58
48796;BME280;34607;48.520;-1.330;2023-07-16T20:38:46;100330.81;;;17.50;92.70
48796;BME280;34607;48.520;-1.330;2023-07-16T20:41:13;100332.63;;;17.41;93.11
48796;BME280;34607;48.520;-1.330;2023-07-16T20:43:40;100335.41;;;17.29;93.20
48796;BME280;34607;48.520;-1.330;2023-07-16T20:46:07;100328.47;;;17.23;93.03